Cropsey, IL (61731)

2:13 PM CDT on August 22, 2017 (GMT -0500)
Sibley HUB | | Change Station

Elev 823 ft 40.59 °N, 88.38 °W | Updated 10 seconds ago

Mostly Cloudy
Mostly Cloudy
75.5 °F
Feels Like 76 °F
N
2.0
Wind Variable Wind from West

Today
High -- | Low -- °F
--% Chance of Precip.
Yesterday
High -- | Low -- °F
Precip. -- in
Pressure 29.97 in
Visibility 10.0 miles
Clouds Scattered Clouds 2500 ft
Overcast 3300 ft
Heat Index 76 °F
Dew Point 69 °F
Humidity 81%
Rainfall 1.57 in
Snow Depth Not available.
6:11 AM 7:41 PM
New Moon, 1% visible
METAR KPNT 221855Z AUTO 30015G19KT 10SM SCT025 OVC033 24/20 A2997 RMK AO2 LTG DSNT N T02410202
Pressure 29.97 in
Visibility 10.0 miles
Clouds Scattered Clouds 2500 ft
Overcast 3300 ft
Heat Index 76 °F
Dew Point 69 °F
Humidity 81%
Rainfall 1.57 in
Snow Depth Not available.
6:11 AM 7:41 PM
New Moon, 1% visible
METAR KPNT 221855Z AUTO 30015G19KT 10SM SCT025 OVC033 24/20 A2997 RMK AO2 LTG DSNT N T02410202

Get Severe Weather Alerts

Thanks for signing up!

Be on the lookout for a verification email in your inbox.

You'll start receiving the daily forecast at 6 AM.

×

10-Day Weather Forecast

Almanac

Astronomy

Aug. 22, 2017 Rise Set
Actual Time
Civil Twilight
Nautical Twilight
Astronomical Twilight
Moon
Length of Visible Light
Length of Day
Tomorrow will be .
, % of the Moon is Illuminated

Today's Extremes

State Highs State Lows

Community

WunderPhotos

Category 6

Welcome to Category 6. This is the collective home for Weather Underground's featured writeups by Dr. Jeff Masters (right), Bob Henson (left), Chris Burt, and other regular contributors.

Nearby

Air Quality

  Air Quality AQ Index Pollutant
Not available.

Snow Depth

Station Depth Elevation

Earthquake Activity

City Distance Mag. Time & Date
Minimum magnitude displayed is 2.5.

Coastal Water Temperatures

Place Temperature

Stations

Nearby Weather Stations

Station Location Temp. Windchill Dew Point Humidity Wind Precip. Elev Updated Type
                   

Watches & Warnings

There are currently no watches in effect.